sensor_id;sensor_type;location;lat;lon;timestamp;pressure;altitude;pressure_sealevel;temperature;humidity
55733;BME280;41637;52.364;9.910;2023-12-20T00:00:13;100405.91;;;7.48;100.00
55733;BME280;41637;52.364;9.910;2023-12-20T00:02:40;100405.06;;;7.48;100.00
55733;BME280;41637;52.364;9.910;2023-12-20T00:05:07;100393.69;;;7.47;100.00
55733;BME280;41637;52.364;9.910;2023-12-20T00:07:34;100415.16;;;7.44;100.00
55733;BME280;41637;52.364;9.910;2023-12-20T00:10:01;100412.97;;;7.31;100.00
55733;BME280;41637;52.364;9.910;2023-12-20T00:12:27;100406.03;;;7.30;100.00
55733;BME280;41637;52.364;9.910;2023-12-20T00:14:54;100405.06;;;7.31;100.00
55733;BME280;41637;52.364;9.910;2023-12-20T00:17:21;100405.34;;;7.28;100.00
55733;BME280;41637;52.364;9.910;2023-12-20T00:19:47;100402.53;;;7.22;100.00
55733;BME280;41637;52.364;9.910;2023-12-20T00:22:14;100409.94;;;7.18;100.00
55733;BME280;41637;52.364;9.910;2023-12-20T00:24:41;100405.66;;;7.17;100.00
55733;BME280;41637;52.364;9.910;2023-12-20T00:27:08;100418.50;;;7.12;100.00
55733;BME280;41637;52.364;9.910;2023-12-20T00:29:34;100417.84;;;7.10;100.00
55733;BME280;41637;52.364;9.910;2023-12-20T00:32:01;100420.44;;;7.02;100.00
55733;BME280;41637;52.364;9.910;2023-12-20T00:34:27;100433.13;;;6.98;100.00
55733;BME280;41637;52.364;9.910;2023-12-20T00:36:54;100429.66;;;6.98;100.00
55733;BME280;41637;52.364;9.910;2023-12-20T00:39:21;100441.81;;;6.90;100.00
55733;BME280;41637;52.364;9.910;2023-12-20T00:41:48;100430.09;;;6.85;100.00
55733;BME280;41637;52.364;9.910;2023-12-20T00:44:14;100439.81;;;6.84;100.00
55733;BME280;41637;52.364;9.910;2023-12-20T00:46:41;100436.50;;;6.82;100.00
55733;BME280;41637;52.364;9.910;2023-12-20T00:49:08;100433.88;;;6.82;100.00
55733;BME280;41637;52.364;9.910;2023-12-20T00:51:34;100441.09;;;6.80;100.00
55733;BME280;41637;52.364;9.910;2023-12-20T00:54:01;100450.94;;;6.70;100.00
55733;BME280;41637;52.364;9.910;2023-12-20T00:56:28;100437.28;;;6.74;100.00
55733;BME280;41637;52.364;9.910;2023-12-20T00:58:55;100437.13;;;6.76;100.00
55733;BME280;41637;52.364;9.910;2023-12-20T01:01:22;100437.44;;;6.73;100.00
55733;BME280;41637;52.364;9.910;2023-12-20T01:03:48;100435.78;;;6.72;100.00
55733;BME280;41637;52.364;9.910;2023-12-20T01:06:18;100426.59;;;6.76;100.00
55733;BME280;41637;52.364;9.910;2023-12-20T01:08:44;100435.78;;;6.72;100.00
55733;BME280;41637;52.364;9.910;2023-12-20T01:11:11;100425.88;;;6.66;100.00
55733;BME280;41637;52.364;9.910;2023-12-20T01:13:38;100413.34;;;6.68;100.00
55733;BME280;41637;52.364;9.910;2023-12-20T01:16:05;100423.84;;;6.60;100.00
55733;BME280;41637;52.364;9.910;2023-12-20T01:18:32;100430.09;;;6.59;100.00
55733;BME280;41637;52.364;9.910;2023-12-20T01:21:02;100429.28;;;6.58;100.00
55733;BME280;41637;52.364;9.910;2023-12-20T01:23:33;100420.69;;;6.56;100.00
55733;BME280;41637;52.364;9.910;2023-12-20T01:26:00;100421.84;;;6.53;100.00
55733;BME280;41637;52.364;9.910;2023-12-20T01:28:26;100411.63;;;6.50;100.00
55733;BME280;41637;52.364;9.910;2023-12-20T01:30:53;100422.16;;;6.50;100.00
55733;BME280;41637;52.364;9.910;2023-12-20T01:33:20;100428.72;;;6.46;100.00
55733;BME280;41637;52.364;9.910;2023-12-20T01:35:46;100421.47;;;6.48;100.00
55733;BME280;41637;52.364;9.910;2023-12-20T01:38:13;100425.22;;;6.46;100.00
55733;BME280;41637;52.364;9.910;2023-12-20T01:40:40;100426.91;;;6.47;100.00
55733;BME280;41637;52.364;9.910;2023-12-20T01:43:08;100431.66;;;6.43;100.00
55733;BME280;41637;52.364;9.910;2023-12-20T01:45:35;100437.44;;;6.47;100.00
55733;BME280;41637;52.364;9.910;2023-12-20T01:48:03;100444.53;;;6.46;100.00
55733;BME280;41637;52.364;9.910;2023-12-20T01:50:32;100447.44;;;6.43;100.00
55733;BME280;41637;52.364;9.910;2023-12-20T01:53:02;100434.94;;;6.45;100.00
55733;BME280;41637;52.364;9.910;2023-12-20T01:55:31;100431.34;;;6.46;100.00
55733;BME280;41637;52.364;9.910;2023-12-20T01:57:59;100431.97;;;6.40;100.00
55733;BME280;41637;52.364;9.910;2023-12-20T02:00:29;100430.63;;;6.36;100.00
55733;BME280;41637;52.364;9.910;2023-12-20T02:03:00;100442.44;;;6.32;100.00
55733;BME280;41637;52.364;9.910;2023-12-20T02:05:29;100439.28;;;6.28;100.00
55733;BME280;41637;52.364;9.910;2023-12-20T02:07:56;100439.59;;;6.25;100.00
55733;BME280;41637;52.364;9.910;2023-12-20T02:10:24;100442.38;;;6.24;100.00
55733;BME280;41637;52.364;9.910;2023-12-20T02:12:51;100446.16;;;6.21;100.00
55733;BME280;41637;52.364;9.910;2023-12-20T02:15:18;100439.66;;;6.16;100.00
55733;BME280;41637;52.364;9.910;2023-12-20T02:17:46;100450.81;;;6.09;100.00
55733;BME280;41637;52.364;9.910;2023-12-20T02:20:13;100440.00;;;6.12;100.00
55733;BME280;41637;52.364;9.910;2023-12-20T02:22:40;100435.69;;;6.11;100.00
55733;BME280;41637;52.364;9.910;2023-12-20T02:25:07;100422.69;;;6.10;100.00
55733;BME280;41637;52.364;9.910;2023-12-20T02:27:34;100421.84;;;6.09;100.00
55733;BME280;41637;52.364;9.910;2023-12-20T02:30:01;100402.06;;;6.05;100.00
55733;BME280;41637;52.364;9.910;2023-12-20T02:32:29;100402.72;;;6.07;100.00
55733;BME280;41637;52.364;9.910;2023-12-20T02:34:58;100396.97;;;6.04;100.00
55733;BME280;41637;52.364;9.910;2023-12-20T02:37:24;100407.31;;;6.05;100.00
55733;BME280;41637;52.364;9.910;2023-12-20T02:39:51;100402.91;;;6.06;100.00
55733;BME280;41637;52.364;9.910;2023-12-20T02:42:18;100413.13;;;6.09;100.00
55733;BME280;41637;52.364;9.910;2023-12-20T02:44:44;100414.25;;;6.06;100.00
55733;BME280;41637;52.364;9.910;2023-12-20T02:47:11;100414.78;;;6.10;100.00
55733;BME280;41637;52.364;9.910;2023-12-20T02:49:38;100405.38;;;6.07;100.00
55733;BME280;41637;52.364;9.910;2023-12-20T02:52:04;100408.47;;;6.03;100.00
55733;BME280;41637;52.364;9.910;2023-12-20T02:54:31;100406.16;;;6.00;100.00
55733;BME280;41637;52.364;9.910;2023-12-20T02:56:58;100395.38;;;5.93;100.00
55733;BME280;41637;52.364;9.910;2023-12-20T02:59:24;100403.56;;;5.90;100.00
55733;BME280;41637;52.364;9.910;2023-12-20T03:01:51;100399.09;;;5.90;100.00
55733;BME280;41637;52.364;9.910;2023-12-20T03:04:18;100396.66;;;5.89;100.00
55733;BME280;41637;52.364;9.910;2023-12-20T03:06:45;100389.03;;;5.86;100.00
55733;BME280;41637;52.364;9.910;2023-12-20T03:09:11;100393.63;;;5.84;100.00
55733;BME280;41637;52.364;9.910;2023-12-20T03:11:38;100395.59;;;5.82;100.00
55733;BME280;41637;52.364;9.910;2023-12-20T03:14:05;100399.22;;;5.81;100.00
55733;BME280;41637;52.364;9.910;2023-12-20T03:16:32;100382.06;;;5.77;100.00
55733;BME280;41637;52.364;9.910;2023-12-20T03:19:02;100373.50;;;5.75;100.00
55733;BME280;41637;52.364;9.910;2023-12-20T03:21:29;100370.19;;;5.72;100.00
55733;BME280;41637;52.364;9.910;2023-12-20T03:23:55;100379.03;;;5.71;100.00
55733;BME280;41637;52.364;9.910;2023-12-20T03:26:22;100381.31;;;5.66;100.00
55733;BME280;41637;52.364;9.910;2023-12-20T03:28:49;100374.09;;;5.68;100.00
55733;BME280;41637;52.364;9.910;2023-12-20T03:31:16;100363.72;;;5.67;100.00
55733;BME280;41637;52.364;9.910;2023-12-20T03:33:43;100358.63;;;5.65;100.00
55733;BME280;41637;52.364;9.910;2023-12-20T03:36:09;100360.72;;;5.62;100.00
55733;BME280;41637;52.364;9.910;2023-12-20T03:38:36;100336.03;;;5.63;100.00
55733;BME280;41637;52.364;9.910;2023-12-20T03:41:04;100341.16;;;5.64;100.00
55733;BME280;41637;52.364;9.910;2023-12-20T03:43:31;100355.59;;;5.60;100.00
55733;BME280;41637;52.364;9.910;2023-12-20T03:45:57;100345.06;;;5.60;100.00
55733;BME280;41637;52.364;9.910;2023-12-20T03:48:25;100330.94;;;5.61;100.00
55733;BME280;41637;52.364;9.910;2023-12-20T03:50:52;100336.22;;;5.61;100.00
55733;BME280;41637;52.364;9.910;2023-12-20T03:53:18;100334.53;;;5.60;100.00
55733;BME280;41637;52.364;9.910;2023-12-20T03:55:45;100345.06;;;5.60;100.00
55733;BME280;41637;52.364;9.910;2023-12-20T03:58:12;100341.63;;;5.60;100.00
55733;BME280;41637;52.364;9.910;2023-12-20T04:00:38;100339.13;;;5.58;100.00
55733;BME280;41637;52.364;9.910;2023-12-20T04:03:05;100336.97;;;5.54;100.00
55733;BME280;41637;52.364;9.910;2023-12-20T04:05:32;100337.78;;;5.54;100.00
55733;BME280;41637;52.364;9.910;2023-12-20T04:08:01;100334.31;;;5.54;100.00
55733;BME280;41637;52.364;9.910;2023-12-20T04:10:28;100330.88;;;5.53;100.00
55733;BME280;41637;52.364;9.910;2023-12-20T04:12:54;100337.09;;;5.52;100.00
55733;BME280;41637;52.364;9.910;2023-12-20T04:15:21;100337.78;;;5.54;100.00
55733;BME280;41637;52.364;9.910;2023-12-20T04:17:48;100335.16;;;5.54;100.00
55733;BME280;41637;52.364;9.910;2023-12-20T04:20:15;100344.09;;;5.61;100.00
55733;BME280;41637;52.364;9.910;2023-12-20T04:22:42;100339.53;;;5.63;100.00
55733;BME280;41637;52.364;9.910;2023-12-20T04:25:09;100338.06;;;5.69;100.00
55733;BME280;41637;52.364;9.910;2023-12-20T04:27:36;100344.16;;;5.69;100.00
55733;BME280;41637;52.364;9.910;2023-12-20T04:30:03;100329.44;;;5.77;100.00
55733;BME280;41637;52.364;9.910;2023-12-20T04:32:30;100324.69;;;5.80;99.85
55733;BME280;41637;52.364;9.910;2023-12-20T04:34:58;100345.88;;;5.79;99.65
55733;BME280;41637;52.364;9.910;2023-12-20T04:37:25;100349.19;;;5.81;99.35
55733;BME280;41637;52.364;9.910;2023-12-20T04:39:51;100319.91;;;5.84;99.27
55733;BME280;41637;52.364;9.910;2023-12-20T04:42:18;100344.97;;;5.88;98.91
55733;BME280;41637;52.364;9.910;2023-12-20T04:44:45;100326.25;;;5.91;98.94
55733;BME280;41637;52.364;9.910;2023-12-20T04:47:11;100317.91;;;5.96;98.94
55733;BME280;41637;52.364;9.910;2023-12-20T04:49:38;100319.75;;;6.03;98.93
55733;BME280;41637;52.364;9.910;2023-12-20T04:52:05;100308.94;;;6.06;98.64
55733;BME280;41637;52.364;9.910;2023-12-20T04:54:32;100323.59;;;6.09;98.03
55733;BME280;41637;52.364;9.910;2023-12-20T04:56:59;100316.03;;;6.14;97.80
55733;BME280;41637;52.364;9.910;2023-12-20T04:59:25;100314.94;;;6.17;97.78
55733;BME280;41637;52.364;9.910;2023-12-20T05:01:52;100321.00;;;6.17;97.31
55733;BME280;41637;52.364;9.910;2023-12-20T05:04:19;100318.22;;;6.19;97.39
55733;BME280;41637;52.364;9.910;2023-12-20T05:06:45;100321.53;;;6.21;97.05
55733;BME280;41637;52.364;9.910;2023-12-20T05:09:12;100318.44;;;6.25;97.04
55733;BME280;41637;52.364;9.910;2023-12-20T05:11:39;100314.97;;;6.25;96.77
55733;BME280;41637;52.364;9.910;2023-12-20T05:14:05;100318.72;;;6.22;96.68
55733;BME280;41637;52.364;9.910;2023-12-20T05:16:32;100307.06;;;6.25;96.29
55733;BME280;41637;52.364;9.910;2023-12-20T05:18:59;100336.72;;;6.27;96.69
55733;BME280;41637;52.364;9.910;2023-12-20T05:21:27;100304.78;;;6.30;96.37
55733;BME280;41637;52.364;9.910;2023-12-20T05:23:54;100315.31;;;6.30;96.34
55733;BME280;41637;52.364;9.910;2023-12-20T05:26:20;100319.59;;;6.31;95.76
55733;BME280;41637;52.364;9.910;2023-12-20T05:28:47;100297.22;;;6.35;96.03
55733;BME280;41637;52.364;9.910;2023-12-20T05:31:13;100323.28;;;6.38;95.87
55733;BME280;41637;52.364;9.910;2023-12-20T05:33:40;100309.78;;;6.41;96.00
55733;BME280;41637;52.364;9.910;2023-12-20T05:36:07;100305.16;;;6.43;96.19
55733;BME280;41637;52.364;9.910;2023-12-20T05:38:37;100318.66;;;6.40;96.80
55733;BME280;41637;52.364;9.910;2023-12-20T05:41:04;100294.91;;;6.32;97.03
55733;BME280;41637;52.364;9.910;2023-12-20T05:43:31;100310.06;;;6.30;97.37
55733;BME280;41637;52.364;9.910;2023-12-20T05:45:58;100319.25;;;6.26;98.36
55733;BME280;41637;52.364;9.910;2023-12-20T05:48:24;100301.28;;;6.21;98.25
55733;BME280;41637;52.364;9.910;2023-12-20T05:50:51;100295.19;;;6.21;99.02
55733;BME280;41637;52.364;9.910;2023-12-20T05:53:18;100303.91;;;6.21;98.68
55733;BME280;41637;52.364;9.910;2023-12-20T05:55:44;100313.47;;;6.22;98.54
55733;BME280;41637;52.364;9.910;2023-12-20T05:58:11;100306.06;;;6.26;98.69
55733;BME280;41637;52.364;9.910;2023-12-20T06:00:38;100293.56;;;6.28;98.23
55733;BME280;41637;52.364;9.910;2023-12-20T06:03:05;100304.47;;;6.33;98.31
55733;BME280;41637;52.364;9.910;2023-12-20T06:05:32;100304.16;;;6.36;97.94
55733;BME280;41637;52.364;9.910;2023-12-20T06:07:59;100293.63;;;6.36;98.04
55733;BME280;41637;52.364;9.910;2023-12-20T06:10:29;100311.69;;;6.31;97.48
55733;BME280;41637;52.364;9.910;2023-12-20T06:12:56;100315.31;;;6.30;97.31
55733;BME280;41637;52.364;9.910;2023-12-20T06:15:23;100297.56;;;6.32;97.25
55733;BME280;41637;52.364;9.910;2023-12-20T06:17:50;100302.81;;;6.32;97.21
55733;BME280;41637;52.364;9.910;2023-12-20T06:20:17;100292.28;;;6.32;96.91
55733;BME280;41637;52.364;9.910;2023-12-20T06:22:44;100299.19;;;6.33;96.86
55733;BME280;41637;52.364;9.910;2023-12-20T06:25:10;100295.06;;;6.30;96.49
55733;BME280;41637;52.364;9.910;2023-12-20T06:27:37;100294.25;;;6.30;96.53
55733;BME280;41637;52.364;9.910;2023-12-20T06:30:04;100287.00;;;6.32;96.67
55733;BME280;41637;52.364;9.910;2023-12-20T06:32:31;100300.03;;;6.33;96.41
55733;BME280;41637;52.364;9.910;2023-12-20T06:34:57;100317.63;;;6.33;96.14
55733;BME280;41637;52.364;9.910;2023-12-20T06:37:24;100304.16;;;6.36;96.10
55733;BME280;41637;52.364;9.910;2023-12-20T06:39:51;100300.22;;;6.40;96.04
55733;BME280;41637;52.364;9.910;2023-12-20T06:42:18;100306.47;;;6.39;96.32
55733;BME280;41637;52.364;9.910;2023-12-20T06:44:45;100287.53;;;6.36;95.96
55733;BME280;41637;52.364;9.910;2023-12-20T06:47:11;100284.44;;;6.40;95.84
55733;BME280;41637;52.364;9.910;2023-12-20T06:49:40;100299.91;;;6.43;96.01
55733;BME280;41637;52.364;9.910;2023-12-20T06:52:07;100305.16;;;6.43;95.51
55733;BME280;41637;52.364;9.910;2023-12-20T06:54:34;100293.00;;;6.42;95.32
55733;BME280;41637;52.364;9.910;2023-12-20T06:57:01;100280.31;;;6.46;95.32
55733;BME280;41637;52.364;9.910;2023-12-20T06:59:29;100285.25;;;6.41;94.51
55733;BME280;41637;52.364;9.910;2023-12-20T07:01:56;100292.47;;;6.39;94.23
55733;BME280;41637;52.364;9.910;2023-12-20T07:04:23;100283.38;;;6.33;94.35
55733;BME280;41637;52.364;9.910;2023-12-20T07:06:49;100287.84;;;6.32;94.29
55733;BME280;41637;52.364;9.910;2023-12-20T07:09:23;100282.28;;;6.36;94.90
55733;BME280;41637;52.364;9.910;2023-12-20T07:11:50;100279.16;;;6.40;94.46
55733;BME280;41637;52.364;9.910;2023-12-20T07:14:16;100281.81;;;6.48;93.77
55733;BME280;41637;52.364;9.910;2023-12-20T07:16:45;100278.38;;;6.56;93.95
55733;BME280;41637;52.364;9.910;2023-12-20T07:19:11;100295.00;;;6.57;93.79
55733;BME280;41637;52.364;9.910;2023-12-20T07:21:38;100278.56;;;6.55;93.05
55733;BME280;41637;52.364;9.910;2023-12-20T07:24:05;100287.94;;;6.57;92.91
55733;BME280;41637;52.364;9.910;2023-12-20T07:26:32;100285.47;;;6.56;92.76
55733;BME280;41637;52.364;9.910;2023-12-20T07:28:58;100266.03;;;6.57;93.22
55733;BME280;41637;52.364;9.910;2023-12-20T07:31:25;100263.38;;;6.57;93.25
55733;BME280;41637;52.364;9.910;2023-12-20T07:33:52;100284.47;;;6.57;92.85
55733;BME280;41637;52.364;9.910;2023-12-20T07:36:19;100273.59;;;6.51;92.92
55733;BME280;41637;52.364;9.910;2023-12-20T07:38:46;100294.66;;;6.51;93.56
55733;BME280;41637;52.364;9.910;2023-12-20T07:41:13;100297.00;;;6.55;93.35
55733;BME280;41637;52.364;9.910;2023-12-20T07:43:39;100292.06;;;6.60;92.65
55733;BME280;41637;52.364;9.910;2023-12-20T07:46:06;100290.78;;;6.64;92.66
55733;BME280;41637;52.364;9.910;2023-12-20T07:48:37;100290.97;;;6.70;92.74
55733;BME280;41637;52.364;9.910;2023-12-20T07:51:04;100284.53;;;6.73;92.33
55733;BME280;41637;52.364;9.910;2023-12-20T07:53:33;100286.69;;;6.78;94.18
55733;BME280;41637;52.364;9.910;2023-12-20T07:56:00;100283.09;;;6.79;94.05
55733;BME280;41637;52.364;9.910;2023-12-20T07:58:27;100291.47;;;6.74;94.94
55733;BME280;41637;52.364;9.910;2023-12-20T08:01:16;100285.84;;;6.69;95.08
55733;BME280;41637;52.364;9.910;2023-12-20T08:03:43;100286.81;;;6.60;95.64
55733;BME280;41637;52.364;9.910;2023-12-20T08:06:09;100300.75;;;6.52;95.72
55733;BME280;41637;52.364;9.910;2023-12-20T08:08:36;100288.34;;;6.36;96.36
55733;BME280;41637;52.364;9.910;2023-12-20T08:11:03;100282.69;;;6.23;97.23
55733;BME280;41637;52.364;9.910;2023-12-20T08:13:29;100281.97;;;6.12;98.09
55733;BME280;41637;52.364;9.910;2023-12-20T08:15:56;100287.25;;;6.12;98.80
55733;BME280;41637;52.364;9.910;2023-12-20T08:18:23;100277.00;;;6.09;99.37
55733;BME280;41637;52.364;9.910;2023-12-20T08:20:50;100287.88;;;6.06;99.27
55733;BME280;41637;52.364;9.910;2023-12-20T08:23:19;100275.53;;;6.07;99.52
55733;BME280;41637;52.364;9.910;2023-12-20T08:25:50;100296.44;;;6.08;99.85
55733;BME280;41637;52.364;9.910;2023-12-20T08:28:17;100275.53;;;6.07;99.81
55733;BME280;41637;52.364;9.910;2023-12-20T08:30:43;100262.19;;;6.08;100.00
55733;BME280;41637;52.364;9.910;2023-12-20T08:33:10;100269.47;;;6.15;100.00
55733;BME280;41637;52.364;9.910;2023-12-20T08:35:39;100264.22;;;6.15;100.00
55733;BME280;41637;52.364;9.910;2023-12-20T08:38:06;100255.03;;;6.19;99.42
55733;BME280;41637;52.364;9.910;2023-12-20T08:40:33;100264.25;;;6.23;99.24
55733;BME280;41637;52.364;9.910;2023-12-20T08:43:00;100302.09;;;6.22;98.90
55733;BME280;41637;52.364;9.910;2023-12-20T08:45:27;100242.53;;;6.29;98.42
55733;BME280;41637;52.364;9.910;2023-12-20T08:47:53;100245.53;;;6.34;98.40
55733;BME280;41637;52.364;9.910;2023-12-20T08:50:23;100244.22;;;6.38;98.21
55733;BME280;41637;52.364;9.910;2023-12-20T08:52:50;100222.34;;;6.38;97.71
55733;BME280;41637;52.364;9.910;2023-12-20T08:55:16;100225.94;;;6.37;97.36
55733;BME280;41637;52.364;9.910;2023-12-20T08:57:44;100230.91;;;6.40;97.54
55733;BME280;41637;52.364;9.910;2023-12-20T09:00:12;100233.22;;;6.43;97.76
55733;BME280;41637;52.364;9.910;2023-12-20T09:02:39;100229.94;;;6.49;98.03
55733;BME280;41637;52.364;9.910;2023-12-20T09:05:06;100240.63;;;6.47;97.12
55733;BME280;41637;52.364;9.910;2023-12-20T09:07:33;100222.56;;;6.52;97.28
55733;BME280;41637;52.364;9.910;2023-12-20T09:10:00;100223.56;;;6.60;97.17
55733;BME280;41637;52.364;9.910;2023-12-20T09:12:27;100225.84;;;6.63;96.15
55733;BME280;41637;52.364;9.910;2023-12-20T09:14:54;100219.13;;;6.68;96.02
55733;BME280;41637;52.364;9.910;2023-12-20T09:17:20;100212.41;;;6.74;96.08
55733;BME280;41637;52.364;9.910;2023-12-20T09:19:49;100202.50;;;6.76;95.71
55733;BME280;41637;52.364;9.910;2023-12-20T09:22:19;100193.44;;;6.79;95.50
55733;BME280;41637;52.364;9.910;2023-12-20T09:24:46;100195.59;;;6.83;95.71
55733;BME280;41637;52.364;9.910;2023-12-20T09:27:12;100186.72;;;6.84;95.37
55733;BME280;41637;52.364;9.910;2023-12-20T09:29:39;100229.72;;;6.93;95.09
55733;BME280;41637;52.364;9.910;2023-12-20T09:32:06;100207.47;;;6.96;95.24
55733;BME280;41637;52.364;9.910;2023-12-20T09:34:32;100202.50;;;6.92;94.70
55733;BME280;41637;52.364;9.910;2023-12-20T09:36:59;100220.31;;;6.90;94.93
55733;BME280;41637;52.364;9.910;2023-12-20T09:39:26;100187.34;;;6.94;94.73
55733;BME280;41637;52.364;9.910;2023-12-20T09:42:06;100187.03;;;6.98;94.44
55733;BME280;41637;52.364;9.910;2023-12-20T09:44:33;100208.13;;;6.98;93.65
55733;BME280;41637;52.364;9.910;2023-12-20T09:47:03;100192.97;;;7.00;94.05
55733;BME280;41637;52.364;9.910;2023-12-20T09:49:30;100189.19;;;7.02;93.52
55733;BME280;41637;52.364;9.910;2023-12-20T09:51:59;100188.69;;;7.07;93.17
55733;BME280;41637;52.364;9.910;2023-12-20T09:54:28;100183.41;;;7.15;93.24
55733;BME280;41637;52.364;9.910;2023-12-20T09:56:55;100181.13;;;7.12;92.95
55733;BME280;41637;52.364;9.910;2023-12-20T09:59:21;100181.94;;;7.21;93.03
55733;BME280;41637;52.364;9.910;2023-12-20T10:01:49;100177.97;;;7.25;92.10
55733;BME280;41637;52.364;9.910;2023-12-20T10:04:21;100167.59;;;7.31;92.30
55733;BME280;41637;52.364;9.910;2023-12-20T10:06:55;100162.13;;;7.33;91.35
55733;BME280;41637;52.364;9.910;2023-12-20T10:09:23;100157.19;;;7.30;90.39
55733;BME280;41637;52.364;9.910;2023-12-20T10:11:54;100156.03;;;7.41;91.10
55733;BME280;41637;52.364;9.910;2023-12-20T10:14:21;100177.94;;;7.49;90.34
55733;BME280;41637;52.364;9.910;2023-12-20T10:16:49;100160.59;;;7.63;89.88
55733;BME280;41637;52.364;9.910;2023-12-20T10:19:17;100148.06;;;7.65;89.19
55733;BME280;41637;52.364;9.910;2023-12-20T10:21:45;100160.06;;;7.76;89.77
55733;BME280;41637;52.364;9.910;2023-12-20T10:24:17;100169.47;;;7.70;89.23
55733;BME280;41637;52.364;9.910;2023-12-20T10:26:44;100159.94;;;7.69;89.16
55733;BME280;41637;52.364;9.910;2023-12-20T10:29:11;100160.59;;;7.63;89.41
55733;BME280;41637;52.364;9.910;2023-12-20T10:31:37;100151.34;;;7.67;88.95
55733;BME280;41637;52.364;9.910;2023-12-20T10:34:09;100137.16;;;7.68;88.94
55733;BME280;41637;52.364;9.910;2023-12-20T10:36:36;100198.69;;;7.61;88.77
55733;BME280;41637;52.364;9.910;2023-12-20T10:39:03;100159.28;;;7.59;88.70
55733;BME280;41637;52.364;9.910;2023-12-20T10:41:32;100133.84;;;7.66;89.55
55733;BME280;41637;52.364;9.910;2023-12-20T10:44:01;100143.09;;;7.62;89.38
55733;BME280;41637;52.364;9.910;2023-12-20T10:46:29;100131.22;;;7.66;89.69
55733;BME280;41637;52.364;9.910;2023-12-20T10:48:57;100122.47;;;7.66;91.00
55733;BME280;41637;52.364;9.910;2023-12-20T10:51:24;100129.09;;;7.62;92.38
55733;BME280;41637;52.364;9.910;2023-12-20T10:53:54;100113.94;;;7.47;91.27
55733;BME280;41637;52.364;9.910;2023-12-20T10:56:20;100135.88;;;7.48;93.09
55733;BME280;41637;52.364;9.910;2023-12-20T10:58:48;100128.59;;;7.50;93.41
55733;BME280;41637;52.364;9.910;2023-12-20T11:01:17;100131.59;;;7.47;93.64
55733;BME280;41637;52.364;9.910;2023-12-20T11:03:51;100139.03;;;7.43;93.04
55733;BME280;41637;52.364;9.910;2023-12-20T11:09:17;100116.41;;;7.49;94.05
55733;BME280;41637;52.364;9.910;2023-12-20T11:14:24;100108.50;;;7.49;94.40
55733;BME280;41637;52.364;9.910;2023-12-20T11:17:05;100108.38;;;7.42;94.64
55733;BME280;41637;52.364;9.910;2023-12-20T11:19:32;100117.09;;;7.43;94.77
55733;BME280;41637;52.364;9.910;2023-12-20T11:21:58;100163.63;;;7.35;95.74
55733;BME280;41637;52.364;9.910;2023-12-20T11:24:25;100111.84;;;7.26;96.44
55733;BME280;41637;52.364;9.910;2023-12-20T11:26:55;100120.47;;;7.12;96.95
55733;BME280;41637;52.364;9.910;2023-12-20T11:29:29;100123.41;;;7.01;97.30
55733;BME280;41637;52.364;9.910;2023-12-20T11:31:56;100101.66;;;6.99;98.00
55733;BME280;41637;52.364;9.910;2023-12-20T11:34:27;100119.13;;;6.91;98.63
55733;BME280;41637;52.364;9.910;2023-12-20T11:36:58;100106.78;;;6.92;99.40
55733;BME280;41637;52.364;9.910;2023-12-20T11:39:26;100111.53;;;6.88;99.93
55733;BME280;41637;52.364;9.910;2023-12-20T11:41:55;100133.47;;;6.81;100.00
55733;BME280;41637;52.364;9.910;2023-12-20T11:44:25;100128.03;;;6.74;100.00
55733;BME280;41637;52.364;9.910;2023-12-20T11:46:52;100138.22;;;6.69;100.00
55733;BME280;41637;52.364;9.910;2023-12-20T11:49:23;100153.56;;;6.57;100.00
55733;BME280;41637;52.364;9.910;2023-12-20T11:51:50;100155.34;;;6.48;100.00
55733;BME280;41637;52.364;9.910;2023-12-20T11:54:17;100170.31;;;6.40;100.00
55733;BME280;41637;52.364;9.910;2023-12-20T11:56:46;100190.22;;;6.34;100.00
55733;BME280;41637;52.364;9.910;2023-12-20T11:59:13;100140.78;;;6.20;100.00
55733;BME280;41637;52.364;9.910;2023-12-20T12:01:50;100146.19;;;6.10;100.00
55733;BME280;41637;52.364;9.910;2023-12-20T12:04:17;100141.84;;;6.01;100.00
55733;BME280;41637;52.364;9.910;2023-12-20T12:06:45;100126.53;;;5.96;100.00
55733;BME280;41637;52.364;9.910;2023-12-20T12:09:12;100116.47;;;5.91;100.00
55733;BME280;41637;52.364;9.910;2023-12-20T12:11:39;100116.47;;;5.91;100.00
55733;BME280;41637;52.364;9.910;2023-12-20T12:14:07;100117.28;;;5.92;100.00
55733;BME280;41637;52.364;9.910;2023-12-20T12:16:34;100112.84;;;5.92;100.00
55733;BME280;41637;52.364;9.910;2023-12-20T12:19:01;100119.88;;;5.84;100.00
55733;BME280;41637;52.364;9.910;2023-12-20T12:21:28;100122.84;;;5.81;100.00
55733;BME280;41637;52.364;9.910;2023-12-20T12:24:09;100104.72;;;5.78;100.00
55733;BME280;41637;52.364;9.910;2023-12-20T12:26:35;100112.78;;;5.76;99.79
55733;BME280;41637;52.364;9.910;2023-12-20T12:29:02;100132.50;;;5.72;99.61
55733;BME280;41637;52.364;9.910;2023-12-20T12:31:30;100131.03;;;5.78;100.00
55733;BME280;41637;52.364;9.910;2023-12-20T12:33:57;100132.66;;;5.70;99.64
55733;BME280;41637;52.364;9.910;2023-12-20T12:36:24;100122.47;;;5.67;98.62
55733;BME280;41637;52.364;9.910;2023-12-20T12:38:51;100116.34;;;5.67;97.58
55733;BME280;41637;52.364;9.910;2023-12-20T12:41:17;100143.38;;;5.77;97.86
55733;BME280;41637;52.364;9.910;2023-12-20T12:43:44;100106.53;;;5.77;97.73
55733;BME280;41637;52.364;9.910;2023-12-20T12:46:10;100104.72;;;5.78;97.94
55733;BME280;41637;52.364;9.910;2023-12-20T12:48:38;100106.53;;;5.77;97.66
55733;BME280;41637;52.364;9.910;2023-12-20T12:51:08;100115.25;;;5.78;98.00
55733;BME280;41637;52.364;9.910;2023-12-20T12:53:39;100109.22;;;5.93;97.68
55733;BME280;41637;52.364;9.910;2023-12-20T12:56:06;100109.13;;;6.11;96.25
55733;BME280;41637;52.364;9.910;2023-12-20T12:58:33;100099.97;;;6.24;95.14
55733;BME280;41637;52.364;9.910;2023-12-20T13:01:00;100098.47;;;6.13;91.76